createdAt,value
2018-12-21T00:00:25.801Z,100995.19
2018-12-21T00:02:55.090Z,100995.77
2018-12-21T00:05:24.474Z,100991.49
2018-12-21T00:07:53.647Z,100994.47
2018-12-21T00:10:23.001Z,100988.61
2018-12-21T00:12:52.462Z,100989.17
2018-12-21T00:15:21.657Z,100991.23
2018-12-21T00:17:51.652Z,100984.03
2018-12-21T00:20:20.754Z,100989.95
2018-12-21T00:22:50.029Z,100982.03
2018-12-21T00:25:19.532Z,100977.80
2018-12-21T00:27:48.670Z,100976.08
2018-12-21T00:30:22.969Z,100979.02
2018-12-21T00:32:58.284Z,100968.38
2018-12-21T00:35:32.988Z,100972.47
2018-12-21T00:38:07.437Z,100972.84
2018-12-21T00:40:42.069Z,100965.21
2018-12-21T00:43:43.912Z,100966.93
2018-12-21T00:46:32.525Z,100967.48
2018-12-21T00:49:08.054Z,100968.63
2018-12-21T00:51:37.740Z,100972.06
2018-12-21T00:54:07.109Z,100971.45
2018-12-21T00:56:36.236Z,100967.05
2018-12-21T00:59:05.868Z,100969.66
2018-12-21T01:01:35.657Z,100971.98
2018-12-21T01:04:04.820Z,100975.86
2018-12-21T01:06:34.284Z,100978.84
2018-12-21T01:09:04.287Z,100975.92
2018-12-21T01:11:33.621Z,100982.55
2018-12-21T01:14:02.799Z,100979.27
2018-12-21T01:16:32.017Z,100978.97
2018-12-21T01:19:01.405Z,100982.50
2018-12-21T01:21:38.678Z,100982.98
2018-12-21T01:24:03.775Z,100982.39
2018-12-21T01:26:33.791Z,100987.33
2018-12-21T01:29:03.335Z,100984.84
2018-12-21T01:31:32.688Z,100982.34
2018-12-21T01:34:02.436Z,100979.40
2018-12-21T01:36:31.680Z,100975.05
2018-12-21T01:39:00.782Z,100971.61
2018-12-21T01:41:30.156Z,100974.73
2018-12-21T01:43:59.682Z,100968.78
2018-12-21T01:46:29.024Z,100970.56
2018-12-21T01:48:58.385Z,100961.34
2018-12-21T01:51:27.551Z,100958.67
2018-12-21T01:53:56.823Z,100951.93
2018-12-21T01:56:26.000Z,100948.50
2018-12-21T01:58:55.185Z,100949.05
2018-12-21T02:01:24.497Z,100946.80
2018-12-21T02:03:53.723Z,100945.19
2018-12-21T02:06:23.148Z,100951.72
2018-12-21T02:08:52.292Z,100946.80
2018-12-21T02:11:21.634Z,100940.58
2018-12-21T02:13:50.864Z,100935.77
2018-12-21T02:16:21.167Z,100936.20
2018-12-21T02:18:50.285Z,100938.02
2018-12-21T02:21:19.627Z,100932.81
2018-12-21T02:23:48.823Z,100931.34
2018-12-21T02:26:17.943Z,100923.47
2018-12-21T02:28:47.135Z,100926.00
2018-12-21T02:31:16.666Z,100924.00
2018-12-21T02:33:46.060Z,100927.20
2018-12-21T02:36:15.269Z,100929.40
2018-12-21T02:38:44.414Z,100924.42
2018-12-21T02:41:13.735Z,100921.05
2018-12-21T02:43:43.529Z,100925.98
2018-12-21T02:46:12.689Z,100927.27
2018-12-21T02:48:41.808Z,100923.94
2018-12-21T02:51:11.023Z,100932.66
2018-12-21T02:53:40.253Z,100928.45
2018-12-21T02:56:09.514Z,100927.27
2018-12-21T02:58:39.007Z,100921.80
2018-12-21T03:01:08.082Z,100922.92
2018-12-21T03:03:37.194Z,100912.61
2018-12-21T03:06:06.560Z,100913.61
2018-12-21T03:08:35.723Z,100909.17
2018-12-21T03:11:04.963Z,100905.00
2018-12-21T03:13:34.122Z,100903.61
2018-12-21T03:16:03.473Z,100906.06
2018-12-21T03:18:32.812Z,100902.38
2018-12-21T03:21:02.467Z,100902.74
2018-12-21T03:23:31.717Z,100907.72
2018-12-21T03:26:00.932Z,100894.02
2018-12-21T03:28:30.078Z,100905.05
2018-12-21T03:30:59.404Z,100902.63
2018-12-21T03:33:28.929Z,100896.68
2018-12-21T03:35:58.094Z,100901.56
2018-12-21T03:38:27.545Z,100901.19
2018-12-21T03:40:56.673Z,100899.65
2018-12-21T03:43:26.059Z,100895.03
2018-12-21T03:45:55.368Z,100892.52
2018-12-21T03:48:24.510Z,100894.83
2018-12-21T03:50:54.019Z,100886.91
2018-12-21T03:53:23.248Z,100879.30
2018-12-21T03:55:52.743Z,100878.16
2018-12-21T03:58:21.916Z,100882.13
2018-12-21T04:00:51.106Z,100878.52
2018-12-21T04:03:20.581Z,100871.58
2018-12-21T04:05:49.742Z,100870.73
2018-12-21T04:08:18.948Z,100868.92
2018-12-21T04:10:48.440Z,100863.50
2018-12-21T04:13:17.962Z,100860.40
2018-12-21T04:15:47.357Z,100856.41
2018-12-21T04:18:16.673Z,100851.56
2018-12-21T04:20:46.103Z,100856.83
2018-12-21T04:23:15.545Z,100859.61
2018-12-21T04:25:44.601Z,100857.98
2018-12-21T04:28:13.727Z,100852.94
2018-12-21T04:30:42.865Z,100855.47
2018-12-21T04:33:12.058Z,100852.84
2018-12-21T04:35:41.283Z,100855.23
2018-12-21T04:38:10.783Z,100854.03
2018-12-21T04:40:39.913Z,100855.14
2018-12-21T04:43:09.181Z,100851.70
2018-12-21T04:45:38.353Z,100855.27
2018-12-21T04:48:07.498Z,100850.47
2018-12-21T04:50:36.962Z,100859.41
2018-12-21T04:53:06.309Z,100850.83
2018-12-21T04:55:35.496Z,100846.61
2018-12-21T04:58:04.873Z,100844.42
2018-12-21T05:00:34.010Z,100849.56
2018-12-21T05:03:03.188Z,100839.72
2018-12-21T05:05:32.942Z,100841.52
2018-12-21T05:08:02.988Z,100834.75
2018-12-21T05:10:33.204Z,100831.14
2018-12-21T05:13:02.417Z,100837.14
2018-12-21T05:15:31.537Z,100834.00
2018-12-21T05:18:00.644Z,100833.89
2018-12-21T05:20:30.324Z,100831.14
2018-12-21T05:22:59.476Z,100826.29
2018-12-21T05:25:28.573Z,100825.58
2018-12-21T05:27:58.570Z,100820.91
2018-12-21T05:30:27.905Z,100822.91
2018-12-21T05:32:57.055Z,100824.99
2018-12-21T05:35:26.504Z,100824.52
2018-12-21T05:37:55.665Z,100819.58
2018-12-21T05:40:24.886Z,100819.09
2018-12-21T05:42:54.441Z,100817.87
2018-12-21T05:45:23.556Z,100816.20
2018-12-21T05:47:53.605Z,100811.95
2018-12-21T05:50:22.843Z,100809.34
2018-12-21T05:53:00.604Z,100804.38
2018-12-21T05:55:23.833Z,100801.16
2018-12-21T05:57:52.929Z,100800.30
2018-12-21T06:00:22.508Z,100802.25
2018-12-21T06:02:51.892Z,100792.92
2018-12-21T06:05:21.320Z,100787.84
2018-12-21T06:07:50.450Z,100779.26
2018-12-21T06:10:20.009Z,100774.59
2018-12-21T06:12:49.393Z,100772.02
2018-12-21T06:15:18.809Z,100772.63
2018-12-21T06:17:48.028Z,100765.73
2018-12-21T06:20:17.336Z,100763.55
2018-12-21T06:22:46.690Z,100759.70
2018-12-21T06:25:16.059Z,100751.64
2018-12-21T06:27:45.389Z,100746.02
2018-12-21T06:30:14.717Z,100740.84
2018-12-21T06:32:43.909Z,100737.02
2018-12-21T06:35:13.301Z,100729.75
2018-12-21T06:37:42.560Z,100724.65
2018-12-21T06:40:11.874Z,100719.03
2018-12-21T06:42:41.009Z,100719.47
2018-12-21T06:45:10.228Z,100721.27
2018-12-21T06:47:39.458Z,100723.70
2018-12-21T06:50:09.048Z,100725.45
2018-12-21T06:52:38.938Z,100719.97
2018-12-21T06:55:08.324Z,100720.88
2018-12-21T06:57:37.515Z,100715.69
2018-12-21T07:00:09.746Z,100710.97
2018-12-21T07:02:39.348Z,100710.20
2018-12-21T07:05:08.667Z,100710.47
2018-12-21T07:07:38.166Z,100702.53
2018-12-21T07:10:10.132Z,100697.86
2018-12-21T07:12:39.471Z,100693.10
2018-12-21T07:15:09.445Z,100695.72
2018-12-21T07:17:38.815Z,100690.25
2018-12-21T07:20:09.748Z,100688.27
2018-12-21T07:22:39.189Z,100683.79
2018-12-21T07:25:09.501Z,100682.86
2018-12-21T07:27:38.856Z,100683.32
2018-12-21T07:30:11.341Z,100677.75
2018-12-21T07:32:41.062Z,100672.65
2018-12-21T07:35:14.130Z,100674.79
2018-12-21T07:37:43.328Z,100673.97
2018-12-21T07:40:12.501Z,100664.78
2018-12-21T07:42:42.110Z,100668.25
2018-12-21T07:45:11.558Z,100673.44
2018-12-21T07:47:40.722Z,100662.05
2018-12-21T07:50:10.841Z,100668.17
2018-12-21T07:52:40.580Z,100652.98
2018-12-21T07:55:11.052Z,100660.31
2018-12-21T07:57:40.268Z,100652.71
2018-12-21T08:00:12.394Z,100656.64
2018-12-21T08:02:41.617Z,100648.66
2018-12-21T08:05:11.113Z,100646.62
2018-12-21T08:07:40.256Z,100651.46
2018-12-21T08:10:15.075Z,100636.62
2018-12-21T08:12:44.149Z,100638.01
2018-12-21T08:15:13.334Z,100624.79
2018-12-21T08:17:42.543Z,100635.01
2018-12-21T08:20:11.943Z,100633.81
2018-12-21T08:22:41.150Z,100621.40
2018-12-21T08:25:10.444Z,100618.26
2018-12-21T08:27:39.586Z,100611.86
2018-12-21T08:30:10.357Z,100611.07
2018-12-21T08:32:39.675Z,100608.14
2018-12-21T08:35:08.998Z,100603.42
2018-12-21T08:37:38.113Z,100593.00
2018-12-21T08:40:09.720Z,100587.47
2018-12-21T08:42:39.665Z,100587.07
2018-12-21T08:45:10.473Z,100584.50
2018-12-21T08:47:40.056Z,100579.91
2018-12-21T08:50:11.474Z,100573.45
2018-12-21T08:52:40.668Z,100573.02
2018-12-21T08:55:11.903Z,100569.50
2018-12-21T08:57:41.331Z,100572.37
2018-12-21T09:00:13.181Z,100583.21
2018-12-21T09:02:42.414Z,100574.67
2018-12-21T09:05:11.630Z,100571.15
2018-12-21T09:07:40.889Z,100579.29
2018-12-21T09:10:11.331Z,100570.81
2018-12-21T09:12:40.757Z,100562.24
2018-12-21T09:15:15.449Z,100567.81
2018-12-21T09:17:44.801Z,100560.16
2018-12-21T09:20:14.001Z,100563.45
2018-12-21T09:22:43.234Z,100551.25
2018-12-21T09:25:12.561Z,100548.27
2018-12-21T09:27:41.823Z,100547.39
2018-12-21T09:30:14.359Z,100545.22
2018-12-21T09:32:43.965Z,100535.94
2018-12-21T09:35:14.723Z,100529.64
2018-12-21T09:37:44.101Z,100528.16
2018-12-21T09:40:13.734Z,100509.74
2018-12-21T09:42:43.021Z,100508.54
2018-12-21T09:45:12.299Z,100509.88
2018-12-21T09:47:41.466Z,100502.66
2018-12-21T09:50:11.346Z,100491.46
2018-12-21T09:52:40.754Z,100487.63
2018-12-21T09:55:09.978Z,100489.88
2018-12-21T09:57:39.305Z,100479.21
2018-12-21T10:00:11.937Z,100475.26
2018-12-21T10:02:41.810Z,100474.41
2018-12-21T10:05:15.144Z,100471.13
2018-12-21T10:07:44.897Z,100464.70
2018-12-21T10:10:14.024Z,100454.84
2018-12-21T10:12:43.433Z,100447.58
2018-12-21T10:15:12.853Z,100438.06
2018-12-21T10:17:42.054Z,100430.38
2018-12-21T10:20:11.392Z,100420.06
2018-12-21T10:22:41.730Z,100415.38
2018-12-21T10:25:11.379Z,100407.71
2018-12-21T10:27:40.661Z,100405.11
2018-12-21T10:30:11.247Z,100400.45
2018-12-21T10:32:40.809Z,100397.48
2018-12-21T10:35:09.916Z,100384.55
2018-12-21T10:37:39.329Z,100379.23
2018-12-21T10:40:09.685Z,100366.35
2018-12-21T10:42:38.813Z,100363.91
2018-12-21T10:45:08.340Z,100352.72
2018-12-21T10:47:37.739Z,100347.67
2018-12-21T10:50:10.667Z,100335.23
2018-12-21T10:52:39.981Z,100333.53
2018-12-21T10:55:09.141Z,100329.67
2018-12-21T10:57:38.252Z,100321.05
2018-12-21T11:00:11.071Z,100315.45
2018-12-21T11:02:40.646Z,100304.80
2018-12-21T11:05:09.870Z,100296.02
2018-12-21T11:07:39.637Z,100291.84
2018-12-21T11:10:11.464Z,100290.55
2018-12-21T11:12:40.782Z,100282.88
2018-12-21T11:15:10.726Z,100277.72
2018-12-21T11:17:39.789Z,100274.69
2018-12-21T11:20:09.375Z,100268.72
2018-12-21T11:22:38.669Z,100249.81
2018-12-21T11:25:11.177Z,100242.95
2018-12-21T11:27:40.442Z,100234.36
2018-12-21T11:30:09.861Z,100228.84
2018-12-21T11:32:39.177Z,100227.05
2018-12-21T11:35:08.341Z,100218.92
2018-12-21T11:37:37.631Z,100220.66
2018-12-21T11:40:07.283Z,100202.17
2018-12-21T11:42:36.612Z,100188.03
2018-12-21T11:45:08.318Z,100184.55
2018-12-21T11:47:37.591Z,100166.91
2018-12-21T11:50:09.969Z,100155.38
2018-12-21T11:52:39.233Z,100148.09
2018-12-21T11:55:08.573Z,100131.36
2018-12-21T11:57:38.085Z,100128.36
2018-12-21T12:00:09.602Z,100124.91
2018-12-21T12:02:39.266Z,100128.34
2018-12-21T12:05:08.410Z,100112.06
2018-12-21T12:07:37.649Z,100112.91
2018-12-21T12:10:07.661Z,100115.91
2018-12-21T12:12:36.801Z,100107.74
2018-12-21T12:15:07.553Z,100106.47
2018-12-21T12:17:37.026Z,100114.19
2018-12-21T12:20:07.056Z,100115.92
2018-12-21T12:22:36.443Z,100116.77
2018-12-21T12:25:06.367Z,100110.77
2018-12-21T12:27:36.721Z,100098.30
2018-12-21T12:30:08.095Z,100101.31
2018-12-21T12:32:37.221Z,100095.30
2018-12-21T12:35:07.697Z,100090.57
2018-12-21T12:37:36.772Z,100082.44
2018-12-21T12:40:07.656Z,100086.72
2018-12-21T12:45:15.858Z,100076.41
2018-12-21T12:47:45.040Z,100071.24
2018-12-21T12:50:14.447Z,100058.34
2018-12-21T12:52:43.809Z,100053.66
2018-12-21T12:55:13.720Z,100054.94
2018-12-21T12:57:43.077Z,100043.78
2018-12-21T13:00:13.391Z,100035.62
2018-12-21T13:02:43.050Z,100036.09
2018-12-21T13:05:12.253Z,100030.48
2018-12-21T13:07:41.589Z,100024.48
2018-12-21T13:10:11.481Z,100015.48
2018-12-21T13:12:40.714Z,100012.47
2018-12-21T13:15:12.974Z,100008.19
2018-12-21T13:17:42.358Z,99999.18
2018-12-21T13:20:11.891Z,99988.44
2018-12-21T13:22:41.001Z,99988.45
2018-12-21T13:25:11.525Z,99973.02
2018-12-21T13:27:41.317Z,99963.15
2018-12-21T13:30:12.029Z,99958.42
2018-12-21T13:32:41.430Z,99947.71
2018-12-21T13:35:10.545Z,99939.10
2018-12-21T13:37:39.712Z,99931.81
2018-12-21T13:40:12.151Z,99916.80
2018-12-21T13:42:41.413Z,99909.06
2018-12-21T13:45:11.587Z,99900.83
2018-12-21T13:47:41.288Z,99896.13
2018-12-21T13:50:14.338Z,99895.80
2018-12-21T13:52:43.686Z,99892.36
2018-12-21T13:55:20.209Z,99891.52
2018-12-21T13:57:44.144Z,99888.08
2018-12-21T14:00:13.368Z,99890.20
2018-12-21T14:02:42.459Z,99887.65
2018-12-21T14:05:11.564Z,99884.23
2018-12-21T14:07:41.079Z,99879.50
2018-12-21T14:10:12.544Z,99875.62
2018-12-21T14:12:41.807Z,99876.08
2018-12-21T14:15:11.106Z,99861.50
2018-12-21T14:17:40.186Z,99861.08
2018-12-21T14:20:11.997Z,99855.48
2018-12-21T14:22:41.172Z,99849.92
2018-12-21T14:25:10.419Z,99849.05
2018-12-21T14:27:39.519Z,99831.44
2018-12-21T14:30:10.360Z,99834.06
2018-12-21T14:32:39.583Z,99829.74
2018-12-21T14:35:08.957Z,99819.92
2018-12-21T14:37:38.588Z,99817.32
2018-12-21T14:40:08.501Z,99798.90
2018-12-21T14:42:37.640Z,99801.45
2018-12-21T14:45:07.410Z,99795.46
2018-12-21T14:47:36.552Z,99785.63
2018-12-21T14:50:07.352Z,99788.17
2018-12-21T14:52:36.472Z,99776.16
2018-12-21T14:55:07.161Z,99765.86
2018-12-21T14:57:36.498Z,99760.30
2018-12-21T15:00:10.839Z,99753.89
2018-12-21T15:02:40.168Z,99745.30
2018-12-21T15:05:10.884Z,99733.73
2018-12-21T15:07:41.635Z,99731.17
2018-12-21T15:10:11.610Z,99727.33
2018-12-21T15:12:41.350Z,99723.89
2018-12-21T15:15:10.828Z,99717.90
2018-12-21T15:20:18.992Z,99702.44
2018-12-21T15:22:48.147Z,99702.41
2018-12-21T15:25:19.006Z,99687.87
2018-12-21T15:27:48.524Z,99679.72
2018-12-21T15:30:18.102Z,99667.72
2018-12-21T15:32:47.204Z,99664.66
2018-12-21T15:35:16.392Z,99664.65
2018-12-21T15:37:45.554Z,99671.54
2018-12-21T15:40:14.692Z,99669.40
2018-12-21T15:42:44.194Z,99663.82
2018-12-21T15:45:13.569Z,99652.22
2018-12-21T15:47:42.881Z,99646.27
2018-12-21T15:50:13.331Z,99635.14
2018-12-21T15:52:43.263Z,99624.86
2018-12-21T15:55:12.737Z,99619.21
2018-12-21T15:57:41.925Z,99620.94
2018-12-21T16:00:16.605Z,99613.75
2018-12-21T16:02:50.448Z,99613.80
2018-12-21T16:05:19.822Z,99612.85
2018-12-21T16:07:49.297Z,99612.33
2018-12-21T16:10:18.433Z,99608.88
2018-12-21T16:12:47.599Z,99606.26
2018-12-21T16:15:17.398Z,99601.20
2018-12-21T16:17:46.878Z,99593.84
2018-12-21T16:20:16.788Z,99581.86
2018-12-21T16:22:46.532Z,99588.64
2018-12-21T16:25:17.424Z,99573.17
2018-12-21T16:27:46.974Z,99571.08
2018-12-21T16:30:16.620Z,99559.13
2018-12-21T16:32:46.156Z,99557.76
2018-12-21T16:35:15.513Z,99554.72
2018-12-21T16:37:44.837Z,99549.98
2018-12-21T16:40:13.980Z,99550.39
2018-12-21T16:42:43.300Z,99544.80
2018-12-21T16:45:12.488Z,99532.02
2018-12-21T16:47:41.828Z,99525.94
2018-12-21T16:50:14.613Z,99529.01
2018-12-21T16:52:44.024Z,99529.88
2018-12-21T16:55:13.551Z,99518.25
2018-12-21T16:57:42.760Z,99519.12
2018-12-21T17:00:14.081Z,99514.41
2018-12-21T17:02:43.357Z,99502.97
2018-12-21T17:05:12.507Z,99504.11
2018-12-21T17:07:41.889Z,99500.26
2018-12-21T17:10:18.677Z,99497.13
2018-12-21T17:12:48.005Z,99493.00
2018-12-21T17:15:17.375Z,99489.58
2018-12-21T17:17:46.537Z,99481.83
2018-12-21T17:20:16.298Z,99482.30
2018-12-21T17:22:45.624Z,99483.59
2018-12-21T17:25:15.734Z,99466.77
2018-12-21T17:27:45.508Z,99457.70
2018-12-21T17:30:14.876Z,99459.48
2018-12-21T17:32:44.104Z,99453.45
2018-12-21T17:35:13.286Z,99445.52
2018-12-21T17:37:44.066Z,99442.47
2018-12-21T17:40:13.992Z,99438.02
2018-12-21T17:42:44.613Z,99425.52
2018-12-21T17:45:17.512Z,99429.41
2018-12-21T17:47:47.019Z,99441.33
2018-12-21T17:50:16.138Z,99431.37
2018-12-21T17:52:45.496Z,99433.59
2018-12-21T17:55:14.836Z,99424.83
2018-12-21T17:57:44.150Z,99423.02
2018-12-21T18:00:18.272Z,99414.91
2018-12-21T18:02:52.123Z,99415.25
2018-12-21T18:05:22.212Z,99417.69
2018-12-21T18:07:51.570Z,99415.03
2018-12-21T18:10:20.773Z,99418.99
2018-12-21T18:12:49.908Z,99418.91
2018-12-21T18:15:19.049Z,99416.73
2018-12-21T18:17:48.476Z,99407.16
2018-12-21T18:20:17.617Z,99399.47
2018-12-21T18:22:46.800Z,99408.41
2018-12-21T18:25:24.824Z,99405.86
2018-12-21T18:27:56.994Z,99388.73
2018-12-21T18:30:31.025Z,99399.58
2018-12-21T18:33:10.873Z,99397.89
2018-12-21T18:35:40.297Z,99398.82
2018-12-21T18:38:15.376Z,99402.24
2018-12-21T18:40:44.818Z,99402.06
2018-12-21T18:43:14.145Z,99403.31
2018-12-21T18:45:43.758Z,99399.22
2018-12-21T18:48:13.408Z,99400.73
2018-12-21T18:50:42.536Z,99405.26
2018-12-21T18:53:12.034Z,99395.88
2018-12-21T18:55:42.003Z,99393.40
2018-12-21T18:58:11.399Z,99395.84
2018-12-21T19:00:40.689Z,99391.98
2018-12-21T19:03:10.077Z,99393.30
2018-12-21T19:05:39.175Z,99394.34
2018-12-21T19:08:08.297Z,99398.69
2018-12-21T19:10:37.403Z,99397.61
2018-12-21T19:13:06.645Z,99400.98
2018-12-21T19:15:35.864Z,99398.91
2018-12-21T19:18:05.384Z,99392.86
2018-12-21T19:20:34.568Z,99393.29
2018-12-21T19:23:03.664Z,99394.80
2018-12-21T19:25:34.419Z,99388.91
2018-12-21T19:28:04.184Z,99391.94
2018-12-21T19:30:33.462Z,99387.49
2018-12-21T19:33:02.896Z,99396.63
2018-12-21T19:35:34.418Z,99400.53
2018-12-21T19:38:03.892Z,99394.38
2018-12-21T19:40:33.921Z,99389.30
2018-12-21T19:43:03.100Z,99391.72
2018-12-21T19:45:32.914Z,99397.92
2018-12-21T19:48:02.321Z,99407.39
2018-12-21T19:50:31.585Z,99403.62
2018-12-21T19:53:02.582Z,99404.51
2018-12-21T19:55:46.364Z,99398.73
2018-12-21T19:58:15.676Z,99399.22
2018-12-21T20:00:45.256Z,99399.80
2018-12-21T20:03:14.557Z,99386.46
2018-12-21T20:05:43.817Z,99388.83
2018-12-21T20:08:13.116Z,99393.53
2018-12-21T20:10:43.694Z,99380.46
2018-12-21T20:13:13.671Z,99384.52
2018-12-21T20:15:42.784Z,99394.19
2018-12-21T20:18:11.970Z,99384.63
2018-12-21T20:20:41.670Z,99374.95
2018-12-21T20:23:11.784Z,99372.03
2018-12-21T20:25:41.323Z,99377.70
2018-12-21T20:28:10.691Z,99382.13
2018-12-21T20:30:39.903Z,99390.63
2018-12-21T20:33:09.057Z,99377.33
2018-12-21T20:35:38.442Z,99395.77
2018-12-21T20:38:07.716Z,99389.88
2018-12-21T20:40:37.261Z,99390.94
2018-12-21T20:43:07.735Z,99399.95
2018-12-21T20:45:38.536Z,99394.40
2018-12-21T20:48:07.652Z,99397.49
2018-12-21T20:50:37.436Z,99393.95
2018-12-21T20:53:06.808Z,99397.96
2018-12-21T20:55:36.468Z,99390.73
2018-12-21T20:58:37.583Z,99393.00
2018-12-21T21:01:07.422Z,99400.46
2018-12-21T21:03:37.469Z,99407.17
2018-12-21T21:06:06.726Z,99406.95
2018-12-21T21:08:36.395Z,99413.52
2018-12-21T21:11:05.614Z,99407.31
2018-12-21T21:13:34.744Z,99410.94
2018-12-21T21:16:03.910Z,99422.28
2018-12-21T21:18:34.249Z,99418.55
2018-12-21T21:21:06.320Z,99415.70
2018-12-21T21:23:36.277Z,99427.72
2018-12-21T21:26:05.454Z,99417.34
2018-12-21T21:28:35.044Z,99432.05
2018-12-21T21:31:04.658Z,99427.33
2018-12-21T21:33:34.168Z,99431.12
2018-12-21T21:36:03.804Z,99431.63
2018-12-21T21:38:33.167Z,99433.42
2018-12-21T21:41:02.412Z,99441.80
2018-12-21T21:43:31.617Z,99434.19
2018-12-21T21:46:01.105Z,99434.19
2018-12-21T21:48:30.908Z,99443.92
2018-12-21T21:51:00.208Z,99443.69
2018-12-21T21:53:29.625Z,99445.00
2018-12-21T21:55:59.213Z,99434.02
2018-12-21T21:58:28.664Z,99438.98
2018-12-21T22:00:57.930Z,99439.95
2018-12-21T22:03:27.369Z,99444.50
2018-12-21T22:05:57.078Z,99453.77
2018-12-21T22:08:26.396Z,99447.72
2018-12-21T22:11:01.779Z,99443.38
2018-12-21T22:13:28.567Z,99455.49
2018-12-21T22:15:57.874Z,99453.23
2018-12-21T22:18:27.468Z,99453.64
2018-12-21T22:20:57.846Z,99447.38
2018-12-21T22:23:27.497Z,99465.70
2018-12-21T22:25:57.285Z,99449.25
2018-12-21T22:28:26.468Z,99455.94
2018-12-21T22:30:56.073Z,99461.21
2018-12-21T22:33:26.685Z,99455.50
2018-12-21T22:35:56.223Z,99465.30
2018-12-21T22:38:25.523Z,99459.68
2018-12-21T22:40:55.044Z,99465.39
2018-12-21T22:43:24.208Z,99465.25
2018-12-21T22:45:53.589Z,99475.70
2018-12-21T22:48:23.012Z,99479.27
2018-12-21T22:50:52.134Z,99474.98
2018-12-21T22:53:21.269Z,99485.37
2018-12-21T22:55:51.035Z,99487.70
2018-12-21T22:58:20.513Z,99487.50
2018-12-21T23:00:49.945Z,99488.14
2018-12-21T23:03:19.216Z,99493.86
2018-12-21T23:05:48.777Z,99493.86
2018-12-21T23:08:18.224Z,99508.56
2018-12-21T23:10:47.580Z,99500.34
2018-12-21T23:13:16.858Z,99510.62
2018-12-21T23:15:46.264Z,99521.73
2018-12-21T23:18:15.591Z,99518.87
2018-12-21T23:20:44.845Z,99515.38
2018-12-21T23:23:14.205Z,99532.03
2018-12-21T23:25:43.592Z,99537.63
2018-12-21T23:28:12.655Z,99538.48
2018-12-21T23:30:42.094Z,99533.42
2018-12-21T23:33:11.528Z,99524.23
2018-12-21T23:35:40.720Z,99524.55
2018-12-21T23:38:09.865Z,99532.00
2018-12-21T23:40:39.004Z,99532.58
2018-12-21T23:43:08.730Z,99542.31
2018-12-21T23:45:38.225Z,99534.77
2018-12-21T23:48:07.534Z,99534.37
2018-12-21T23:50:36.946Z,99530.09
2018-12-21T23:53:06.177Z,99553.59
2018-12-21T23:55:35.341Z,99546.14
2018-12-21T23:58:04.438Z,99541.13
